createdAt,value
2019-05-14T00:01:17.989Z,22.76
2019-05-14T00:03:48.308Z,22.73
2019-05-14T00:06:21.745Z,22.73
2019-05-14T00:08:52.254Z,22.76
2019-05-14T00:11:22.776Z,22.74
2019-05-14T00:13:53.050Z,22.74
2019-05-14T00:16:24.350Z,22.76
2019-05-14T00:18:56.249Z,22.76
2019-05-14T00:21:26.633Z,22.76
2019-05-14T00:23:56.927Z,22.76
2019-05-14T00:26:31.735Z,22.78
2019-05-14T00:29:01.779Z,22.77
2019-05-14T00:31:32.263Z,22.78
2019-05-14T00:34:02.553Z,22.72
2019-05-14T00:36:32.850Z,22.74
2019-05-14T00:39:03.447Z,22.76
2019-05-14T00:41:33.840Z,22.77
2019-05-14T00:44:04.158Z,22.78
2019-05-14T00:46:34.646Z,22.79
2019-05-14T00:49:04.891Z,22.77
2019-05-14T00:51:35.159Z,22.75
2019-05-14T00:54:05.523Z,22.75
2019-05-14T00:56:35.754Z,22.75
2019-05-14T00:59:06.104Z,22.77
2019-05-14T01:01:36.587Z,22.74
2019-05-14T01:04:06.868Z,22.74
2019-05-14T01:06:37.705Z,22.71
2019-05-14T01:09:47.572Z,22.72
2019-05-14T01:12:21.561Z,22.71
2019-05-14T01:15:06.728Z,22.70
2019-05-14T01:17:24.044Z,22.72
2019-05-14T01:19:54.409Z,22.74
2019-05-14T01:22:24.696Z,22.73
2019-05-14T01:24:55.092Z,22.69
2019-05-14T01:27:25.376Z,22.70
2019-05-14T01:29:55.699Z,22.69
2019-05-14T01:32:26.121Z,22.71
2019-05-14T01:34:56.409Z,22.67
2019-05-14T01:37:26.768Z,22.69
2019-05-14T01:39:57.198Z,22.68
2019-05-14T01:42:27.412Z,22.69
2019-05-14T01:47:28.026Z,22.71
2019-05-14T01:49:58.451Z,22.71
2019-05-14T01:52:31.821Z,22.71
2019-05-14T01:55:02.295Z,22.73
2019-05-14T01:57:32.727Z,22.74
2019-05-14T02:00:02.988Z,22.74
2019-05-14T02:02:33.342Z,22.73
2019-05-14T02:05:03.652Z,22.72
2019-05-14T02:07:34.838Z,22.71
2019-05-14T02:10:07.518Z,22.70
2019-05-14T02:12:37.834Z,22.72
2019-05-14T02:15:08.456Z,22.72
2019-05-14T02:17:41.128Z,22.71
2019-05-14T02:20:12.634Z,22.71
2019-05-14T02:22:42.747Z,22.70
2019-05-14T02:25:12.991Z,22.70
2019-05-14T02:27:43.465Z,22.68
2019-05-14T02:30:13.742Z,22.70
2019-05-14T02:32:44.034Z,22.70
2019-05-14T02:35:14.306Z,22.70
2019-05-14T02:37:44.747Z,22.69
2019-05-14T02:40:15.076Z,22.68
2019-05-14T02:42:45.910Z,22.69
2019-05-14T02:45:19.529Z,22.68
2019-05-14T02:47:50.310Z,22.67
2019-05-14T02:50:20.485Z,22.67
2019-05-14T02:52:50.850Z,22.67
2019-05-14T02:55:21.231Z,22.67
2019-05-14T02:57:51.499Z,22.67
2019-05-14T03:00:21.922Z,22.62
2019-05-14T03:02:52.383Z,22.59
2019-05-14T03:05:22.736Z,22.48
2019-05-14T03:07:52.991Z,22.39
2019-05-14T03:10:23.423Z,22.30
2019-05-14T03:12:53.724Z,22.29
2019-05-14T03:15:24.128Z,22.32
2019-05-14T03:17:54.494Z,22.34
2019-05-14T03:20:24.746Z,22.27
2019-05-14T03:23:03.070Z,22.22
2019-05-14T03:25:30.161Z,22.19
2019-05-14T03:27:59.882Z,22.15
2019-05-14T03:30:32.480Z,22.16
2019-05-14T03:33:03.550Z,22.16
2019-05-14T03:35:42.472Z,22.12
2019-05-14T03:38:09.229Z,22.10
2019-05-14T03:40:39.964Z,22.08
2019-05-14T03:43:10.542Z,22.05
2019-05-14T03:45:40.865Z,22.04
2019-05-14T03:48:11.146Z,22.04
2019-05-14T03:50:42.433Z,22.05
2019-05-14T03:53:12.696Z,22.03
2019-05-14T03:55:42.953Z,21.99
2019-05-14T03:58:14.268Z,21.96
2019-05-14T04:00:55.067Z,21.96
2019-05-14T04:03:25.476Z,21.95
2019-05-14T04:05:58.851Z,21.91
2019-05-14T04:08:29.286Z,21.92
2019-05-14T04:11:00.995Z,21.94
2019-05-14T04:13:31.578Z,22.02
2019-05-14T04:16:03.387Z,22.12
2019-05-14T04:18:40.286Z,22.19
2019-05-14T04:21:10.043Z,22.24
2019-05-14T04:23:40.759Z,22.26
2019-05-14T04:26:11.079Z,22.28
2019-05-14T04:28:41.439Z,22.32
2019-05-14T04:31:11.706Z,22.34
2019-05-14T04:33:42.148Z,22.37
2019-05-14T04:36:12.342Z,22.39
2019-05-14T04:38:42.620Z,22.41
2019-05-14T04:41:12.975Z,22.44
2019-05-14T04:43:43.245Z,22.46
2019-05-14T04:46:13.596Z,22.45
2019-05-14T04:48:44.335Z,22.45
2019-05-14T04:51:14.902Z,22.46
2019-05-14T04:53:45.178Z,22.43
2019-05-14T04:56:15.712Z,22.46
2019-05-14T04:58:49.594Z,22.46
2019-05-14T05:01:21.020Z,22.47
2019-05-14T05:03:51.450Z,22.49
2019-05-14T05:06:21.813Z,22.50
2019-05-14T05:08:52.067Z,22.51
2019-05-14T05:11:22.316Z,22.51
2019-05-14T05:13:53.597Z,22.43
2019-05-14T05:16:23.924Z,22.45
2019-05-14T05:18:54.246Z,22.49
2019-05-14T05:21:24.607Z,22.52
2019-05-14T05:23:54.851Z,22.53
2019-05-14T05:26:25.386Z,22.57
2019-05-14T05:29:03.565Z,22.57
2019-05-14T05:31:29.268Z,22.59
2019-05-14T05:33:59.454Z,22.60
2019-05-14T05:36:29.781Z,22.62
2019-05-14T05:39:00.103Z,22.59
2019-05-14T05:41:31.957Z,22.60
2019-05-14T05:44:02.282Z,22.60
2019-05-14T05:46:33.023Z,22.62
2019-05-14T05:49:03.332Z,22.63
2019-05-14T05:51:33.600Z,22.64
2019-05-14T05:54:03.836Z,22.65
2019-05-14T05:56:34.716Z,22.66
2019-05-14T05:59:05.932Z,22.67
2019-05-14T06:01:44.943Z,22.66
2019-05-14T06:04:08.925Z,22.68
2019-05-14T06:06:39.592Z,22.69
2019-05-14T06:09:09.877Z,22.74
2019-05-14T06:11:40.195Z,22.73
2019-05-14T06:14:10.452Z,22.72
2019-05-14T06:16:40.732Z,22.71
2019-05-14T06:19:11.067Z,22.72
2019-05-14T06:21:41.380Z,22.73
2019-05-14T06:24:11.752Z,22.71
2019-05-14T06:26:42.011Z,22.72
2019-05-14T06:29:12.328Z,22.71
2019-05-14T06:31:42.606Z,22.71
2019-05-14T06:34:12.927Z,22.72
2019-05-14T06:36:43.208Z,22.73
2019-05-14T06:39:13.512Z,22.74
2019-05-14T06:41:43.816Z,22.73
2019-05-14T06:44:14.126Z,22.74
2019-05-14T06:46:44.543Z,22.75
2019-05-14T06:49:14.838Z,22.76
2019-05-14T06:51:45.185Z,22.76
2019-05-14T06:54:15.509Z,22.76
2019-05-14T06:56:45.733Z,22.77
2019-05-14T06:59:17.988Z,22.77
2019-05-14T07:01:48.947Z,22.78
2019-05-14T07:04:20.268Z,22.78
2019-05-14T07:06:50.668Z,22.79
2019-05-14T07:09:21.723Z,22.79
2019-05-14T07:11:52.004Z,22.79
2019-05-14T07:14:22.252Z,22.80
2019-05-14T07:16:52.604Z,22.81
2019-05-14T07:19:22.895Z,22.80
2019-05-14T07:21:53.189Z,22.80
2019-05-14T07:24:23.541Z,22.80
2019-05-14T07:26:53.856Z,22.79
2019-05-14T07:29:25.388Z,22.82
2019-05-14T07:31:58.085Z,22.82
2019-05-14T07:34:28.368Z,22.80
2019-05-14T07:36:58.917Z,22.79
2019-05-14T07:39:29.387Z,22.80
2019-05-14T07:41:59.618Z,22.81
2019-05-14T07:44:29.941Z,22.81
2019-05-14T07:47:00.204Z,22.83
2019-05-14T07:49:30.530Z,22.82
2019-05-14T07:52:00.706Z,22.81
2019-05-14T07:54:31.024Z,22.81
2019-05-14T07:57:01.335Z,22.83
2019-05-14T07:59:31.637Z,22.85
2019-05-14T08:02:01.902Z,22.89
2019-05-14T08:04:32.233Z,22.91
2019-05-14T08:07:03.157Z,22.90
2019-05-14T08:09:33.415Z,22.89
2019-05-14T08:12:03.652Z,22.91
2019-05-14T08:14:41.868Z,22.92
2019-05-14T08:17:08.632Z,22.92
2019-05-14T08:19:39.082Z,22.91
2019-05-14T08:22:09.783Z,22.90
2019-05-14T08:24:40.165Z,22.89
2019-05-14T08:27:10.409Z,22.88
2019-05-14T08:29:40.824Z,22.89
2019-05-14T08:32:11.417Z,22.90
2019-05-14T08:34:41.653Z,22.89
2019-05-14T08:37:11.897Z,22.89
2019-05-14T08:39:42.309Z,22.89
2019-05-14T08:42:13.679Z,22.89
2019-05-14T08:44:44.030Z,22.89
2019-05-14T08:47:14.316Z,22.89
2019-05-14T08:49:46.645Z,22.85
2019-05-14T08:52:19.013Z,22.86
2019-05-14T08:54:53.748Z,22.87
2019-05-14T08:57:20.875Z,22.88
2019-05-14T08:59:51.198Z,22.83
2019-05-14T09:02:21.423Z,22.84
2019-05-14T09:04:54.596Z,22.86
2019-05-14T09:07:23.798Z,22.90
2019-05-14T09:09:54.017Z,22.92
2019-05-14T09:12:24.352Z,22.94
2019-05-14T09:14:54.679Z,22.97
2019-05-14T09:17:24.939Z,22.98
2019-05-14T09:20:06.250Z,22.99
2019-05-14T09:22:28.946Z,23.00
2019-05-14T09:25:00.042Z,23.01
2019-05-14T09:27:30.749Z,22.90
2019-05-14T09:30:01.045Z,22.80
2019-05-14T09:32:32.409Z,22.77
2019-05-14T09:35:03.022Z,22.76
2019-05-14T09:37:33.293Z,22.74
2019-05-14T09:40:09.449Z,22.72
2019-05-14T09:42:39.885Z,22.70
2019-05-14T09:45:11.359Z,22.73
2019-05-14T09:47:41.971Z,22.73
2019-05-14T09:50:19.386Z,22.73
2019-05-14T09:52:44.448Z,22.80
2019-05-14T09:55:14.839Z,22.86
2019-05-14T09:57:45.199Z,22.91
2019-05-14T10:00:18.158Z,22.92
2019-05-14T10:02:49.184Z,22.68
2019-05-14T10:05:20.303Z,22.50
2019-05-14T10:07:50.602Z,22.43
2019-05-14T10:10:21.032Z,22.42
2019-05-14T10:12:56.753Z,22.39
2019-05-14T10:15:23.388Z,22.38
2019-05-14T10:17:54.053Z,22.38
2019-05-14T10:20:36.763Z,22.36
2019-05-14T10:22:58.565Z,22.37
2019-05-14T10:25:28.823Z,22.36
2019-05-14T10:27:59.190Z,22.35
2019-05-14T10:30:29.694Z,22.33
2019-05-14T10:33:09.227Z,22.30
2019-05-14T10:35:32.072Z,22.29
2019-05-14T10:38:04.694Z,22.26
2019-05-14T10:40:35.310Z,22.23
2019-05-14T10:43:05.576Z,22.21
2019-05-14T10:45:38.485Z,22.17
2019-05-14T10:48:09.763Z,22.21
2019-05-14T10:50:55.842Z,22.24
2019-05-14T10:53:12.638Z,22.25
2019-05-14T10:55:43.093Z,22.30
2019-05-14T10:58:14.400Z,22.31
2019-05-14T11:00:44.676Z,22.29
2019-05-14T11:03:14.988Z,22.30
2019-05-14T11:05:45.324Z,22.30
2019-05-14T11:08:15.616Z,22.31
2019-05-14T11:10:46.057Z,22.32
2019-05-14T11:13:18.791Z,22.30
2019-05-14T11:15:48.889Z,22.32
2019-05-14T11:18:20.071Z,22.32
2019-05-14T11:20:51.486Z,22.30
2019-05-14T11:23:22.129Z,22.30
2019-05-14T11:25:52.863Z,22.27
2019-05-14T11:28:23.282Z,22.30
2019-05-14T11:30:54.595Z,22.28
2019-05-14T11:33:25.006Z,22.29
2019-05-14T11:35:58.328Z,22.31
2019-05-14T11:38:36.932Z,22.31
2019-05-14T11:41:00.730Z,22.26
2019-05-14T11:43:30.966Z,22.22
2019-05-14T11:46:01.300Z,22.22
2019-05-14T11:48:31.582Z,22.24
2019-05-14T11:51:02.081Z,22.26
2019-05-14T11:53:32.371Z,22.27
2019-05-14T11:56:02.596Z,22.23
2019-05-14T11:58:35.111Z,22.19
2019-05-14T12:01:05.473Z,22.13
2019-05-14T12:03:35.825Z,22.10
2019-05-14T12:06:06.212Z,22.07
2019-05-14T12:08:41.879Z,22.05
2019-05-14T12:11:11.301Z,22.05
2019-05-14T12:13:44.774Z,22.06
2019-05-14T12:16:15.129Z,22.07
2019-05-14T12:18:48.142Z,22.09
2019-05-14T12:21:17.917Z,22.08
2019-05-14T12:23:48.636Z,22.08
2019-05-14T12:26:19.821Z,22.10
2019-05-14T12:28:50.309Z,22.10
2019-05-14T12:31:20.638Z,22.09
2019-05-14T12:33:50.958Z,22.13
2019-05-14T12:36:21.325Z,22.17
2019-05-14T12:38:51.701Z,22.12
2019-05-14T12:41:21.928Z,22.12
2019-05-14T12:43:52.320Z,22.13
2019-05-14T12:46:22.617Z,22.14
2019-05-14T12:48:52.925Z,22.15
2019-05-14T12:51:23.255Z,22.16
2019-05-14T12:53:53.657Z,22.15
2019-05-14T12:56:23.973Z,22.17
2019-05-14T12:58:54.351Z,22.16
2019-05-14T13:01:24.648Z,22.15
2019-05-14T13:03:54.971Z,22.14
2019-05-14T13:06:25.309Z,22.18
2019-05-14T13:08:55.716Z,22.15
2019-05-14T13:11:26.111Z,22.13
2019-05-14T13:13:58.632Z,22.11
2019-05-14T13:16:29.491Z,22.09
2019-05-14T13:19:00.086Z,22.04
2019-05-14T13:21:30.409Z,21.99
2019-05-14T13:24:01.243Z,21.95
2019-05-14T13:26:31.503Z,21.93
2019-05-14T13:29:02.107Z,21.96
2019-05-14T13:31:32.476Z,21.95
2019-05-14T13:34:03.109Z,21.96
2019-05-14T13:36:33.660Z,21.96
2019-05-14T13:39:08.982Z,21.95
2019-05-14T13:41:41.517Z,21.98
2019-05-14T13:44:21.289Z,21.98
2019-05-14T13:46:44.026Z,21.96
2019-05-14T13:49:14.333Z,21.95
2019-05-14T13:51:44.595Z,21.96
2019-05-14T13:54:14.911Z,22.04
2019-05-14T13:56:45.346Z,22.09
2019-05-14T13:59:15.694Z,22.10
2019-05-14T14:01:48.492Z,22.11
2019-05-14T14:04:18.435Z,22.16
2019-05-14T14:06:49.145Z,22.18
2019-05-14T14:09:19.622Z,22.17
2019-05-14T14:11:50.017Z,22.15
2019-05-14T14:14:20.397Z,22.15
2019-05-14T14:16:50.827Z,22.12
2019-05-14T14:19:21.301Z,22.11
2019-05-14T14:21:51.795Z,22.09
2019-05-14T14:24:22.130Z,22.09
2019-05-14T14:26:52.325Z,22.07
2019-05-14T14:29:22.839Z,22.09
2019-05-14T14:31:53.348Z,22.13
2019-05-14T14:34:24.045Z,22.13
2019-05-14T14:36:55.291Z,22.11
2019-05-14T14:39:25.540Z,22.12
2019-05-14T14:41:58.298Z,22.13
2019-05-14T14:44:29.148Z,22.15
2019-05-14T14:47:05.448Z,22.15
2019-05-14T14:49:35.825Z,22.16
2019-05-14T14:52:06.156Z,22.18
2019-05-14T14:54:38.150Z,22.17
2019-05-14T14:57:09.508Z,22.19
2019-05-14T14:59:39.814Z,22.19
2019-05-14T15:02:10.541Z,22.20
2019-05-14T15:04:41.910Z,22.18
2019-05-14T15:07:12.350Z,22.19
2019-05-14T15:09:42.711Z,22.16
2019-05-14T15:12:12.975Z,22.21
2019-05-14T15:14:43.263Z,22.28
2019-05-14T15:17:13.524Z,22.32
2019-05-14T15:19:43.776Z,22.35
2019-05-14T15:22:14.061Z,22.37
2019-05-14T15:24:44.385Z,22.41
2019-05-14T15:27:15.439Z,22.43
2019-05-14T15:29:48.699Z,22.44
2019-05-14T15:32:19.738Z,22.45
2019-05-14T15:34:50.764Z,22.48
2019-05-14T15:37:21.068Z,22.48
2019-05-14T15:39:51.530Z,22.50
2019-05-14T15:42:21.916Z,22.52
2019-05-14T15:44:55.989Z,22.52
2019-05-14T15:47:24.194Z,22.53
2019-05-14T15:49:54.745Z,22.52
2019-05-14T15:52:25.200Z,22.37
2019-05-14T15:54:55.778Z,22.35
2019-05-14T15:57:28.718Z,22.39
2019-05-14T16:00:00.778Z,22.37
2019-05-14T16:02:30.286Z,22.20
2019-05-14T16:05:01.006Z,22.18
2019-05-14T16:07:31.338Z,22.22
2019-05-14T16:10:01.729Z,22.20
2019-05-14T16:12:32.429Z,22.23
2019-05-14T16:15:03.081Z,22.27
2019-05-14T16:17:34.261Z,22.33
2019-05-14T16:20:05.061Z,22.34
2019-05-14T16:22:35.544Z,22.37
2019-05-14T16:25:08.848Z,22.39
2019-05-14T16:27:42.200Z,22.41
2019-05-14T16:30:12.885Z,22.42
2019-05-14T16:32:43.189Z,22.44
2019-05-14T16:35:13.634Z,22.45
2019-05-14T16:37:43.921Z,22.46
2019-05-14T16:40:14.177Z,22.47
2019-05-14T16:42:44.767Z,22.48
2019-05-14T16:45:15.254Z,22.49
2019-05-14T16:47:45.622Z,22.49
2019-05-14T16:50:18.877Z,22.49
2019-05-14T16:52:49.427Z,22.50
2019-05-14T16:55:26.499Z,22.51
2019-05-14T16:57:51.734Z,22.52
2019-05-14T17:00:22.095Z,22.51
2019-05-14T17:02:52.398Z,22.52
2019-05-14T17:05:23.457Z,22.54
2019-05-14T17:07:54.350Z,22.54
2019-05-14T17:10:24.661Z,22.55
2019-05-14T17:12:57.584Z,22.54
2019-05-14T17:15:28.849Z,22.55
2019-05-14T17:17:59.890Z,22.54
2019-05-14T17:20:30.228Z,22.56
2019-05-14T17:23:09.082Z,22.55
2019-05-14T17:25:39.216Z,22.56
2019-05-14T17:28:09.717Z,22.55
2019-05-14T17:30:40.038Z,22.57
2019-05-14T17:33:10.869Z,22.58
2019-05-14T17:35:43.648Z,22.58
2019-05-14T17:38:13.972Z,22.58
2019-05-14T17:40:44.331Z,22.58
2019-05-14T17:43:14.787Z,22.57
2019-05-14T17:45:48.256Z,22.58
2019-05-14T17:48:18.998Z,22.59
2019-05-14T17:50:49.634Z,22.59
2019-05-14T17:53:20.061Z,22.58
2019-05-14T17:55:50.969Z,22.59
2019-05-14T17:58:22.695Z,22.59
2019-05-14T18:00:53.057Z,22.58
2019-05-14T18:03:23.619Z,22.59
2019-05-14T18:05:54.135Z,22.58
2019-05-14T18:08:24.520Z,22.60
2019-05-14T18:10:58.310Z,22.59
2019-05-14T18:13:27.163Z,22.60
2019-05-14T18:15:58.053Z,22.60
2019-05-14T18:18:29.139Z,22.60
2019-05-14T18:21:00.544Z,22.60
2019-05-14T18:23:30.932Z,22.60
2019-05-14T18:26:08.280Z,22.60
2019-05-14T18:28:38.134Z,22.58
2019-05-14T18:31:09.513Z,22.60
2019-05-14T18:33:40.364Z,22.60
2019-05-14T18:36:12.934Z,22.58
2019-05-14T18:38:43.728Z,22.62
2019-05-14T18:41:15.435Z,22.64
2019-05-14T18:43:45.864Z,22.64
2019-05-14T18:46:19.192Z,22.64
2019-05-14T18:48:52.243Z,22.64
2019-05-14T18:51:23.167Z,22.65
2019-05-14T18:53:55.695Z,22.65
2019-05-14T18:56:28.956Z,22.67
2019-05-14T18:58:58.274Z,22.68
2019-05-14T19:01:29.258Z,22.68
2019-05-14T19:03:59.576Z,22.68
2019-05-14T19:06:30.088Z,22.69
2019-05-14T19:09:01.748Z,22.68
2019-05-14T19:11:33.600Z,22.70
2019-05-14T19:14:04.075Z,22.70
2019-05-14T19:16:34.838Z,22.70
2019-05-14T19:19:08.048Z,22.70
2019-05-14T19:21:38.486Z,22.71
2019-05-14T19:24:09.400Z,22.71
2019-05-14T19:26:40.512Z,22.72
2019-05-14T19:29:11.678Z,22.74
2019-05-14T19:31:42.179Z,22.74
2019-05-14T19:34:12.925Z,22.73
2019-05-14T19:36:43.203Z,22.73
2019-05-14T19:39:13.595Z,22.75
2019-05-14T19:41:44.226Z,22.75
2019-05-14T19:44:15.127Z,22.74
2019-05-14T19:46:45.904Z,22.74
2019-05-14T19:49:18.321Z,22.73
2019-05-14T19:51:49.412Z,22.73
2019-05-14T19:54:20.519Z,22.73
2019-05-14T19:56:57.107Z,22.74
2019-05-14T19:59:25.918Z,22.76
2019-05-14T20:01:58.785Z,22.76
2019-05-14T20:04:30.284Z,22.75
2019-05-14T20:07:00.909Z,22.76
2019-05-14T20:09:31.423Z,22.79
2019-05-14T20:12:02.889Z,22.79
2019-05-14T20:14:34.692Z,22.81
2019-05-14T20:17:08.945Z,22.82
2019-05-14T20:19:39.775Z,22.79
2019-05-14T20:22:11.588Z,22.71
2019-05-14T20:24:42.117Z,22.68
2019-05-14T20:27:12.590Z,22.66
2019-05-14T20:29:44.109Z,22.68
2019-05-14T20:32:14.480Z,22.65
2019-05-14T20:34:48.473Z,22.63
2019-05-14T20:37:18.952Z,22.66
2019-05-14T20:39:49.698Z,22.67
2019-05-14T20:42:20.087Z,22.71
2019-05-14T20:44:50.581Z,22.68
2019-05-14T20:47:20.894Z,22.70
2019-05-14T20:49:51.292Z,22.67
2019-05-14T20:52:21.679Z,22.66
2019-05-14T20:54:51.988Z,22.63
2019-05-14T20:57:26.520Z,22.61
2019-05-14T20:59:54.670Z,22.58
2019-05-14T21:02:24.915Z,22.58
2019-05-14T21:04:56.010Z,22.60
2019-05-14T21:07:28.887Z,22.60
2019-05-14T21:09:59.373Z,22.65
2019-05-14T21:12:30.139Z,22.62
2019-05-14T21:15:01.400Z,22.68
2019-05-14T21:17:31.773Z,22.70
2019-05-14T21:20:02.030Z,22.72
2019-05-14T21:22:32.314Z,22.72
2019-05-14T21:25:02.988Z,22.72
2019-05-14T21:27:44.448Z,22.72
2019-05-14T21:30:05.709Z,22.73
2019-05-14T21:32:36.024Z,22.67
2019-05-14T21:35:06.539Z,22.66
2019-05-14T21:37:39.224Z,22.67
2019-05-14T21:40:09.385Z,22.63
2019-05-14T21:42:39.712Z,22.53
2019-05-14T21:45:10.136Z,22.51
2019-05-14T21:47:40.347Z,22.46
2019-05-14T21:50:11.220Z,22.43
2019-05-14T21:52:42.311Z,22.41
2019-05-14T21:55:12.850Z,22.42
2019-05-14T21:57:54.233Z,22.42
2019-05-14T22:00:19.366Z,22.40
2019-05-14T22:02:51.280Z,22.41
2019-05-14T22:05:21.582Z,22.40
2019-05-14T22:07:51.954Z,22.43
2019-05-14T22:10:22.504Z,22.41
2019-05-14T22:12:52.839Z,22.35
2019-05-14T22:15:23.076Z,22.38
2019-05-14T22:17:53.521Z,22.35
2019-05-14T22:20:23.763Z,22.37
2019-05-14T22:22:54.040Z,22.37
2019-05-14T22:25:24.503Z,22.32
2019-05-14T22:28:10.755Z,22.26
2019-05-14T22:30:29.055Z,22.28
2019-05-14T22:33:00.670Z,22.24
2019-05-14T22:35:31.388Z,22.29
2019-05-14T22:38:03.752Z,22.30
2019-05-14T22:40:34.083Z,22.20
2019-05-14T22:43:05.701Z,22.23
2019-05-14T22:45:35.997Z,22.18
2019-05-14T22:48:06.211Z,22.17
2019-05-14T22:50:38.626Z,22.21
2019-05-14T22:53:09.327Z,22.15
2019-05-14T22:55:39.797Z,22.11
2019-05-14T22:58:24.640Z,22.17
2019-05-14T23:00:47.500Z,22.18
2019-05-14T23:03:14.492Z,22.17
2019-05-14T23:05:44.790Z,22.14
2019-05-14T23:08:15.217Z,22.07
2019-05-14T23:10:45.605Z,22.06
2019-05-14T23:13:15.831Z,22.07
2019-05-14T23:15:48.083Z,22.05
2019-05-14T23:18:18.514Z,22.06
2019-05-14T23:20:49.803Z,22.05
2019-05-14T23:23:20.145Z,22.03
2019-05-14T23:25:50.414Z,22.06
2019-05-14T23:28:20.851Z,22.05
2019-05-14T23:30:51.322Z,22.03
2019-05-14T23:33:21.597Z,22.08
2019-05-14T23:35:52.421Z,22.06
2019-05-14T23:38:22.754Z,22.07
2019-05-14T23:40:53.123Z,22.02
2019-05-14T23:43:23.442Z,22.01
2019-05-14T23:45:53.722Z,22.04
2019-05-14T23:48:24.022Z,22.02
2019-05-14T23:50:54.681Z,21.97
2019-05-14T23:53:24.999Z,21.97
2019-05-14T23:55:55.368Z,21.99
2019-05-14T23:58:25.655Z,21.98
